Kenai Municipal Airport
PAEN : now visible

Airfield :











YOU CAN JOIN US ON...

 
LOGIN :

Register | Disclaimer

   EN    FR    IT 

 









Legend :    VFR   Marginal VFR   IFR   Intensive IFR   Very Intensive IFR
Visi :
Ceiling :
>= 8 km
>= 3000ft
5 to 8 km
1000 to 3000 ft
1500m to 5 km
500 to 1000 ft
800 to 1500m
200 to 500 ft
< 800m
< 200 ft
Symbols :   Thunderstorms  Fog  Heavy snow  Heavy precipitations  Wind > 20 kt






- Airport Elevation : 99 ft
- IATA code : ENA


PAEN - Kenai Municipal

CURRENT METAR :
  • 192153Z 05009KT 350V070 10SM CLR 18/09 A3015 RMK AO2 SLP212 T01780089

EXPIRED METARs :
  • 192053Z 04010KT 10SM SCT032 17/09 A3016 RMK AO2 SLP215 T01670089 58005
  • 192005Z 02007KT 10SM SCT031 SCT036 16/09 A3017 RMK AO2 T01560089
  • 191919Z VRB06KT 10SM BKN028 BKN035 16/10 A3017 RMK AO2 T01610100
  • 191853Z 02005KT 10SM SCT023 BKN033 14/09 A3018 RMK AO2 SLP220 T01390089
  • 191834Z 04004KT 10SM SCT021 BKN033 14/09 A3018 RMK AO2 T01390089
  • 191816Z 00000KT 10SM BKN021 14/09 A3018 RMK AO2 T01440094
  • 191753Z 05003KT 10SM CLR 13/09 A3018 RMK AO2 SLP220 T01280094 10139 20061 50000
  • 191725Z 33004KT 10SM SCT012 SCT060 12/09 A3018 RMK AO2 T01220089
  • 191717Z VRB04KT 10SM BKN012 BKN060 12/09 A3018 RMK AO2 T01220094

TAF PAEN
Valid from the 19 at 18:00 until the 20 at 18:00 UTC


191735Z 1918/2018 VRB04KT P6SM VCFG FEW035 SCT070
TEMPO 1918/1920 BKN012 BKN060 BKN200
FM192000 30007KT P6SM FEW012 SCT060 BKN200
FM200000 27006KT P6SM FEW100 SCT200
FM200600 VRB04KT P6SM FEW100 SCT200
PAZA FIR / North America



MET'MAP, your aeronautical weather chart ! - Copyright ORBIFLY December 2007 - Disclaimer

ORBIFLY MET'MAP TEAM :

Programming & Development : Alexandra Zaïnal
Original concept : Baudouin d'Aumeries
Technical & hardware support : Manuel Goepfert
Assistance : Marc-Olivier Méhu




SOURCES & CREDITS :

   NOAA       Earth
Advisory